createdAt,value
2019-02-20T00:04:46.930Z,6.20
2019-02-20T00:09:50.610Z,6.20
2019-02-20T00:14:54.274Z,6.20
2019-02-20T00:19:57.946Z,6.20
2019-02-20T00:25:01.617Z,6.20
2019-02-20T00:30:05.560Z,6.20
2019-02-20T00:35:09.381Z,6.20
2019-02-20T00:40:13.175Z,6.20
2019-02-20T00:45:41.401Z,6.20
2019-02-20T00:50:45.470Z,6.20
2019-02-20T00:55:49.135Z,6.20
2019-02-20T01:00:53.139Z,6.20
2019-02-20T01:05:56.815Z,6.20
2019-02-20T01:11:00.497Z,6.20
2019-02-20T01:16:04.171Z,6.20
2019-02-20T01:21:07.847Z,6.20
2019-02-20T01:26:11.532Z,6.20
2019-02-20T01:31:15.198Z,6.20
2019-02-20T01:36:18.872Z,6.10
2019-02-20T01:41:22.546Z,6.10
2019-02-20T01:46:26.268Z,6.10
2019-02-20T01:51:29.959Z,6.10
2019-02-20T01:56:33.641Z,6.10
2019-02-20T02:01:37.318Z,6.10
2019-02-20T02:06:40.981Z,6.10
2019-02-20T02:11:44.654Z,6.10
2019-02-20T02:16:48.677Z,6.10
2019-02-20T02:21:52.357Z,6.10
2019-02-20T02:26:56.037Z,6.10
2019-02-20T02:31:59.768Z,6.10
2019-02-20T02:37:03.469Z,6.10
2019-02-20T02:42:07.239Z,6.10
2019-02-20T02:47:10.928Z,6.10
2019-02-20T02:52:14.905Z,6.10
2019-02-20T02:57:18.584Z,6.20
2019-02-20T03:02:22.285Z,6.10
2019-02-20T03:07:25.958Z,6.10
2019-02-20T03:12:29.664Z,6.10
2019-02-20T03:17:33.365Z,6.10
2019-02-20T03:22:37.061Z,6.10
2019-02-20T03:27:40.762Z,6.10
2019-02-20T03:32:44.446Z,6.10
2019-02-20T03:37:48.210Z,6.10
2019-02-20T03:42:51.889Z,6.10
2019-02-20T03:47:55.599Z,6.00
2019-02-20T03:52:59.293Z,6.00
2019-02-20T03:58:02.966Z,6.10
2019-02-20T04:03:06.656Z,6.10
2019-02-20T04:08:10.349Z,6.00
2019-02-20T04:13:14.045Z,6.00
2019-02-20T04:18:17.729Z,6.10
2019-02-20T04:23:21.429Z,6.10
2019-02-20T04:28:25.101Z,6.10
2019-02-20T04:33:28.862Z,6.10
2019-02-20T04:38:32.545Z,6.10
2019-02-20T04:43:36.535Z,6.10
2019-02-20T04:48:40.227Z,6.10
2019-02-20T04:53:43.933Z,6.10
2019-02-20T04:58:50.069Z,6.10
2019-02-20T05:03:53.768Z,6.10
2019-02-20T05:08:57.862Z,6.10
2019-02-20T05:14:01.898Z,6.10
2019-02-20T05:19:05.953Z,6.10
2019-02-20T05:24:09.654Z,6.10
2019-02-20T05:29:13.335Z,6.10
2019-02-20T05:34:17.121Z,6.10
2019-02-20T05:39:20.798Z,6.10
2019-02-20T05:44:24.478Z,6.10
2019-02-20T05:49:28.170Z,6.10
2019-02-20T05:54:34.689Z,6.10
2019-02-20T05:59:37.381Z,6.10
2019-02-20T06:04:41.075Z,6.10
2019-02-20T06:09:44.829Z,6.10
2019-02-20T06:14:48.996Z,6.10
2019-02-20T06:19:53.013Z,6.10
2019-02-20T06:24:56.782Z,6.10
2019-02-20T06:30:00.784Z,6.10
2019-02-20T06:35:04.614Z,6.10
2019-02-20T06:40:08.642Z,6.00
2019-02-20T06:45:12.532Z,6.10
2019-02-20T06:50:16.302Z,6.00
2019-02-20T06:55:20.133Z,6.10
2019-02-20T07:00:23.859Z,6.10
2019-02-20T07:05:35.272Z,6.10
2019-02-20T07:10:52.411Z,6.10
2019-02-20T07:16:29.308Z,6.10
2019-02-20T07:22:29.605Z,6.20
2019-02-20T07:28:05.217Z,6.20
2019-02-20T07:33:08.930Z,6.20
2019-02-20T07:38:12.721Z,6.30
2019-02-20T07:43:16.425Z,6.30
2019-02-20T07:48:20.130Z,6.40
2019-02-20T07:53:23.813Z,6.40
2019-02-20T07:58:27.532Z,6.40
2019-02-20T08:03:31.226Z,6.50
2019-02-20T08:08:34.927Z,6.50
2019-02-20T08:13:39.541Z,6.50
2019-02-20T08:18:43.415Z,6.60
2019-02-20T08:23:47.111Z,6.60
2019-02-20T08:28:51.263Z,6.70
2019-02-20T08:33:54.954Z,6.70
2019-02-20T08:38:58.650Z,6.80
2019-02-20T08:44:02.347Z,6.80
2019-02-20T08:49:06.046Z,6.90
2019-02-20T08:54:09.753Z,6.90
2019-02-20T08:59:13.700Z,6.90
2019-02-20T09:04:17.392Z,6.90
2019-02-20T09:09:21.109Z,7.00
2019-02-20T09:14:24.808Z,7.00
2019-02-20T09:19:28.764Z,7.00
2019-02-20T09:24:32.450Z,7.10
2019-02-20T09:29:36.145Z,7.10
2019-02-20T09:34:39.825Z,7.20
2019-02-20T09:39:43.548Z,7.30
2019-02-20T09:44:48.270Z,7.30
2019-02-20T09:49:51.977Z,7.40
2019-02-20T09:54:55.681Z,7.50
2019-02-20T09:59:59.450Z,7.60
2019-02-20T10:05:03.149Z,7.60
2019-02-20T10:10:07.483Z,7.70
2019-02-20T10:15:11.982Z,7.80
2019-02-20T10:20:15.732Z,7.90
2019-02-20T10:25:19.414Z,7.90
2019-02-20T10:30:23.113Z,8.00
2019-02-20T10:35:26.813Z,8.10
2019-02-20T10:40:30.518Z,8.20
2019-02-20T10:45:34.465Z,8.30
2019-02-20T10:50:38.175Z,8.40
2019-02-20T10:55:41.878Z,8.40
2019-02-20T11:00:45.569Z,8.50
2019-02-20T11:05:49.341Z,8.50
2019-02-20T11:10:53.030Z,8.60
2019-02-20T11:15:58.845Z,8.70
2019-02-20T11:21:03.490Z,8.80
2019-02-20T11:26:07.184Z,8.90
2019-02-20T11:31:10.950Z,8.90
2019-02-20T11:36:14.645Z,9.00
2019-02-20T11:41:18.352Z,9.10
2019-02-20T11:46:22.049Z,9.20
2019-02-20T11:51:25.755Z,9.30
2019-02-20T11:56:29.480Z,9.40
2019-02-20T12:01:33.259Z,9.50
2019-02-20T12:06:36.967Z,9.50
2019-02-20T12:11:40.675Z,9.60
2019-02-20T12:16:44.391Z,9.60
2019-02-20T12:21:48.091Z,9.70
2019-02-20T12:26:51.813Z,9.70
2019-02-20T12:31:55.543Z,9.70
2019-02-20T12:36:59.357Z,9.70
2019-02-20T12:42:03.086Z,9.70
2019-02-20T12:47:06.926Z,9.70
2019-02-20T12:52:10.910Z,9.80
2019-02-20T12:57:14.686Z,9.80
2019-02-20T13:02:18.372Z,9.80
2019-02-20T13:07:22.481Z,9.90
2019-02-20T13:12:26.264Z,9.90
2019-02-20T13:17:29.979Z,9.90
2019-02-20T13:22:34.027Z,9.90
2019-02-20T13:27:37.766Z,10.00
2019-02-20T13:32:41.483Z,10.00
2019-02-20T13:37:45.194Z,10.00
2019-02-20T13:42:48.910Z,10.10
2019-02-20T13:47:53.063Z,10.10
2019-02-20T13:52:57.391Z,10.00
2019-02-20T13:58:01.768Z,10.00
2019-02-20T14:03:05.504Z,10.00
2019-02-20T14:08:09.205Z,10.00
2019-02-20T14:13:12.968Z,10.00
2019-02-20T14:18:16.664Z,9.90
2019-02-20T14:23:20.630Z,9.90
2019-02-20T14:28:24.318Z,9.90
2019-02-20T14:33:28.049Z,9.90
2019-02-20T14:38:32.076Z,9.90
2019-02-20T14:43:36.016Z,9.90
2019-02-20T14:48:40.135Z,9.90
2019-02-20T14:53:43.834Z,9.80
2019-02-20T14:58:48.879Z,9.80
2019-02-20T15:03:52.718Z,9.80
2019-02-20T15:08:57.360Z,9.70
2019-02-20T15:14:01.154Z,9.70
2019-02-20T15:19:05.309Z,9.70
2019-02-20T15:24:09.240Z,9.70
2019-02-20T15:29:12.957Z,9.70
2019-02-20T15:34:17.048Z,9.60
2019-02-20T15:39:20.829Z,9.70
2019-02-20T15:44:24.564Z,9.60
2019-02-20T15:49:28.334Z,9.60
2019-02-20T15:54:32.095Z,9.60
2019-02-20T15:59:35.874Z,9.60
2019-02-20T16:04:39.629Z,9.50
2019-02-20T16:09:43.414Z,9.50
2019-02-20T16:14:47.398Z,9.50
2019-02-20T16:19:51.155Z,9.40
2019-02-20T16:24:54.837Z,9.40
2019-02-20T16:29:58.593Z,9.40
2019-02-20T16:35:02.905Z,9.40
2019-02-20T16:40:08.220Z,9.30
2019-02-20T16:45:17.178Z,9.30
2019-02-20T16:50:20.984Z,9.20
2019-02-20T16:55:24.812Z,9.20
2019-02-20T17:00:28.733Z,9.10
2019-02-20T17:05:34.423Z,9.10
2019-02-20T17:10:38.117Z,9.10
2019-02-20T17:15:41.914Z,9.10
2019-02-20T17:20:45.726Z,9.00
2019-02-20T17:25:49.650Z,9.00
2019-02-20T17:30:53.527Z,9.00
2019-02-20T17:35:57.249Z,9.00
2019-02-20T17:41:01.205Z,9.00
2019-02-20T17:46:05.159Z,9.00
2019-02-20T17:51:09.004Z,8.90
2019-02-20T17:56:12.818Z,8.90
2019-02-20T18:01:17.409Z,8.90
2019-02-20T18:06:21.198Z,8.80
2019-02-20T18:11:24.879Z,8.80
2019-02-20T18:16:28.615Z,8.80
2019-02-20T18:21:32.322Z,8.80
2019-02-20T18:26:36.037Z,8.80
2019-02-20T18:31:39.759Z,8.80
2019-02-20T18:36:44.109Z,8.80
2019-02-20T18:41:47.947Z,8.80
2019-02-20T18:46:51.646Z,8.70
2019-02-20T18:51:55.594Z,8.70
2019-02-20T18:57:01.043Z,8.60
2019-02-20T19:02:06.728Z,8.60
2019-02-20T19:07:12.719Z,8.60
2019-02-20T19:12:51.950Z,8.50
2019-02-20T19:18:20.635Z,8.50
2019-02-20T19:23:59.839Z,8.40
2019-02-20T19:29:47.410Z,8.40
2019-02-20T19:35:31.538Z,8.40
2019-02-20T19:41:23.820Z,8.40
2019-02-20T19:46:45.178Z,8.30
2019-02-20T19:52:18.691Z,8.30
2019-02-20T19:57:44.329Z,8.30
2019-02-20T20:03:05.836Z,8.30
2019-02-20T20:08:39.833Z,8.30
2019-02-20T20:13:52.727Z,8.30
2019-02-20T20:19:39.674Z,8.30
2019-02-20T20:25:28.763Z,8.20
2019-02-20T20:31:17.261Z,8.20
2019-02-20T20:36:50.998Z,8.20
2019-02-20T20:42:15.584Z,8.20
2019-02-20T20:48:11.873Z,8.10
2019-02-20T20:53:48.590Z,8.10
2019-02-20T20:59:36.378Z,8.10
2019-02-20T21:05:26.385Z,8.10
2019-02-20T21:10:55.477Z,8.00
2019-02-20T21:16:16.801Z,8.10
2019-02-20T21:21:27.751Z,8.00
2019-02-20T21:27:10.421Z,8.00
2019-02-20T21:33:00.706Z,8.00
2019-02-20T21:38:24.637Z,8.00
2019-02-20T21:43:59.441Z,7.90
2019-02-20T21:49:36.286Z,7.90
2019-02-20T21:55:23.288Z,7.80
2019-02-20T22:00:44.133Z,7.80
2019-02-20T22:06:17.970Z,7.80
2019-02-20T22:11:45.754Z,7.70
2019-02-20T22:17:24.089Z,7.70
2019-02-20T22:22:55.970Z,7.70
2019-02-20T22:28:22.838Z,7.60
2019-02-20T22:34:03.825Z,7.60
2019-02-20T22:39:56.814Z,7.60
2019-02-20T22:45:12.711Z,7.50
2019-02-20T22:50:35.897Z,7.50
2019-02-20T22:56:20.368Z,7.50
2019-02-20T23:02:07.137Z,7.50
2019-02-20T23:07:36.184Z,7.50
2019-02-20T23:12:53.338Z,7.40
2019-02-20T23:17:57.032Z,7.40
2019-02-20T23:23:19.978Z,7.40
2019-02-20T23:28:23.637Z,7.40
2019-02-20T23:33:27.578Z,7.40
2019-02-20T23:38:31.276Z,7.40
2019-02-20T23:43:34.954Z,7.40
2019-02-20T23:48:38.621Z,7.40
2019-02-20T23:53:42.301Z,7.40
2019-02-20T23:58:45.985Z,7.40
